This is the latest recevied weather packets stored in our database for station/object N0KWA. If no packets are shown the sender has not sent any weather packets the latest 10 day(s).
| Time | Temp. | Humidity | Pressure | Rain* | Wind** | Luminosity | Snow |
|---|---|---|---|---|---|---|---|
| 1787951230 | 32.22° C | 73% | 1016.9 hPa | 0 mm | - | 363 W/m² | - |
| 1787950926 | 32.22° C | 72% | 1017.1 hPa | 0 mm | - | 10 W/m² | - |
| 1787950621 | 32.22° C | 71% | 1017 hPa | 0 mm | - | 21 W/m² | - |
| 1787950317 | 32.78° C | 72% | 1017 hPa | 0 mm | - | 26 W/m² | - |
| 1787950013 | 32.78° C | 70% | 1017.2 hPa | 0 mm | - | 42 W/m² | - |
| 1787949708 | 32.78° C | 70% | 1017.2 hPa | 0 mm | - | 29 W/m² | - |
| 1787949407 | 32.78° C | 69% | 1017.2 hPa | 0 mm | - | 24 W/m² | - |
| 1787949103 | 32.78° C | 67% | 1017.3 hPa | 0 mm | - | 30 W/m² | - |
| 1787948799 | 32.78° C | 67% | 1017.4 hPa | 0 mm | - | 51 W/m² | - |
| 1787948498 | 32.78° C | 68% | 1017.3 hPa | 0 mm | - | 267 W/m² | - |
| 1787948194 | 32.78° C | 69% | 1017.3 hPa | 0 mm | - | 604 W/m² | - |
| 1787947892 | 32.78° C | 69% | 1017.4 hPa | 0 mm | - | 613 W/m² | - |
| 1787947587 | 32.22° C | 68% | 1017.4 hPa | 0 mm | - | 625 W/m² | - |
| 1787947281 | 32.22° C | 72% | 1017.3 hPa | 0 mm | - | 169 W/m² | - |
| 1787946981 | 32.78° C | 71% | 1017.4 hPa | 0 mm | - | 41 W/m² | - |
| 1787946679 | 32.78° C | 70% | 1017.5 hPa | 0 mm | - | 34 W/m² | - |
| 1787946374 | 32.78° C | 71% | 1017.5 hPa | 0 mm | - | 35 W/m² | - |
| 1787946074 | 32.22° C | 73% | 1017.5 hPa | 0 mm | - | 152 W/m² | - |
| 1787945769 | 32.22° C | 74% | 1017.7 hPa | 0 mm | - | 35 W/m² | - |
| 1787945464 | 32.22° C | 72% | 1017.9 hPa | 0 mm | - | 34 W/m² | - |
| 1787945159 | 32.78° C | 72% | 1017.8 hPa | 0 mm | - | 35 W/m² | - |
| 1787944857 | 32.78° C | 72% | 1017.7 hPa | 0 mm | - | 34 W/m² | - |
| 1787944551 | 32.22° C | 71% | 1018 hPa | 0 mm | - | 37 W/m² | - |
| 1787944247 | 32.78° C | 73% | 1017.9 hPa | 0 mm | - | 40 W/m² | - |
| 1787943947 | 32.78° C | 72% | 1018 hPa | 0 mm | - | 41 W/m² | - |
* Rain latest hour (hover to see other rain measurements)
** Current wind speed in m/s (hover to see current wind gust speed)